Time;durP1;ratioP1;P1;durP2;ratioP2;P2;SDS_P1;SDS_P2;PMS_P1;PMS_P2;Temp;Humidity;BMP_temperature;BMP_pressure;BME280_temperature;BME280_humidity;BME280_pressure;Samples;Min_cycle;Max_cycle;Signal;HPM_P1;HPM_P2
2021/01/28 00:00:36;;;;;;;3.37;3.07;;;3.10;99.90;;;;;;5050567;28;20658;-84
2021/01/28 00:03:03;;;;;;;3.93;3.50;;;3.10;99.90;;;;;;5050289;28;20469;-83
2021/01/28 00:05:31;;;;;;;3.10;2.90;;;3.00;99.90;;;;;;5050473;28;20414;-82
2021/01/28 00:07:58;;;;;;;2.73;2.53;;;3.00;99.90;;;;;;5050335;28;20422;-83
2021/01/28 00:10:24;;;;;;;3.93;3.53;;;3.00;99.90;;;;;;5051452;28;20449;-83
2021/01/28 00:12:51;;;;;;;3.10;2.80;;;3.10;99.90;;;;;;5050605;28;20821;-83
2021/01/28 00:15:18;;;;;;;3.10;2.90;;;2.80;99.90;;;;;;5050384;28;20532;-83
2021/01/28 00:17:44;;;;;;;2.80;2.60;;;2.70;99.90;;;;;;5049996;28;20470;-83
2021/01/28 00:20:17;;;;;;;3.00;2.57;;;2.80;99.90;;;;;;5051684;28;20433;-83
2021/01/28 00:22:43;;;;;;;4.00;2.60;;;3.30;99.90;;;;;;5048628;28;20271;-83
2021/01/28 00:25:12;;;;;;;2.60;2.40;;;3.20;99.90;;;;;;5050432;28;20929;-83
2021/01/28 00:27:37;;;;;;;2.70;2.53;;;3.00;99.90;;;;;;5051795;28;20190;-82
2021/01/28 00:30:06;;;;;;;2.93;2.73;;;2.80;99.90;;;;;;5050551;28;20490;-83
2021/01/28 00:32:32;;;;;;;2.93;2.73;;;3.10;99.90;;;;;;5050465;28;20231;-82
2021/01/28 00:34:57;;;;;;;2.50;2.30;;;3.10;99.90;;;;;;5050332;28;20963;-83
2021/01/28 00:37:23;;;;;;;3.33;3.03;;;2.70;99.90;;;;;;5050330;28;20215;-83
2021/01/28 00:39:48;;;;;;;2.67;2.47;;;2.90;99.90;;;;;;5050749;28;20704;-83
2021/01/28 00:42:14;;;;;;;3.00;2.80;;;3.10;99.90;;;;;;5050406;28;20188;-83
2021/01/28 00:44:39;;;;;;;2.40;2.23;;;3.10;99.90;;;;;;5050384;28;20547;-83
2021/01/28 00:47:05;;;;;;;2.97;2.67;;;2.90;99.90;;;;;;5050447;28;20257;-83
2021/01/28 00:49:30;;;;;;;3.23;2.90;;;2.80;99.90;;;;;;5050351;28;20229;-83
2021/01/28 00:51:56;;;;;;;2.90;2.50;;;2.80;99.90;;;;;;5050289;28;20735;-83
2021/01/28 00:54:22;;;;;;;4.40;2.87;;;2.90;99.90;;;;;;5050356;28;20262;-83
2021/01/28 00:56:47;;;;;;;2.73;2.50;;;3.20;99.90;;;;;;5050261;28;20207;-83
2021/01/28 00:59:13;;;;;;;3.23;2.90;;;2.90;99.90;;;;;;5051551;28;20176;-83
2021/01/28 01:01:38;;;;;;;2.20;2.00;;;2.90;99.90;;;;;;5050256;28;20203;-83
2021/01/28 01:04:04;;;;;;;1.90;1.80;;;3.10;99.90;;;;;;5050063;28;20202;-82
2021/01/28 01:06:29;;;;;;;2.63;2.00;;;2.70;99.90;;;;;;5052005;28;20209;-83
2021/01/28 01:08:55;;;;;;;2.33;2.13;;;2.80;99.90;;;;;;5050232;28;20191;-83
2021/01/28 01:11:20;;;;;;;2.93;2.73;;;2.80;99.90;;;;;;5050248;28;20187;-83
2021/01/28 01:13:46;;;;;;;2.27;2.10;;;3.10;99.90;;;;;;5050255;28;20223;-84
2021/01/28 01:16:13;;;;;;;2.37;2.17;;;2.80;99.90;;;;;;5051163;28;20222;-83
2021/01/28 01:18:39;;;;;;;2.60;2.40;;;3.10;99.90;;;;;;5050079;28;20184;-83
2021/01/28 01:21:07;;;;;;;2.97;2.67;;;3.30;99.90;;;;;;5050068;28;20461;-83
2021/01/28 01:23:33;;;;;;;2.30;2.10;;;3.10;99.90;;;;;;5050057;28;20432;-83
2021/01/28 01:25:59;;;;;;;3.67;3.27;;;3.20;99.90;;;;;;5050174;28;20509;-82
2021/01/28 01:28:28;;;;;;;2.90;2.43;;;3.20;99.90;;;;;;5051377;28;20180;-83
2021/01/28 01:30:54;;;;;;;2.63;2.43;;;3.10;99.90;;;;;;5049863;28;20422;-82
2021/01/28 01:33:20;;;;;;;2.03;1.93;;;2.70;99.90;;;;;;5051502;28;20529;-83
2021/01/28 01:35:46;;;;;;;2.70;2.50;;;3.20;99.90;;;;;;5050171;28;20237;-83
2021/01/28 01:38:12;;;;;;;4.53;2.20;;;2.90;99.90;;;;;;5049900;28;20473;-83
2021/01/28 01:40:42;;;;;;;2.40;2.20;;;3.10;99.90;;;;;;5050103;28;20652;-83
2021/01/28 01:43:11;;;;;;;2.40;2.17;;;2.80;99.90;;;;;;5050211;28;20187;-84
2021/01/28 01:45:49;;;;;;;3.30;2.20;;;3.40;99.90;;;;;;5050253;28;20419;-83
2021/01/28 01:48:20;;;;;;;2.20;1.70;;;3.30;99.90;;;;;;5054901;28;20461;-84
2021/01/28 01:51:04;;;;;;;2.17;1.97;;;3.00;99.90;;;;;;5053470;28;20426;-83
2021/01/28 01:53:33;;;;;;;1.83;1.70;;;3.40;99.90;;;;;;5053569;28;20477;-83
2021/01/28 01:56:11;;;;;;;2.20;1.80;;;3.10;99.90;;;;;;5053251;28;20426;-83
2021/01/28 01:58:52;;;;;;;1.73;1.60;;;3.40;99.90;;;;;;5053511;28;20434;-83
2021/01/28 02:01:22;;;;;;;1.57;1.47;;;3.30;99.90;;;;;;5053171;28;20423;-83
2021/01/28 02:03:50;;;;;;;11.00;1.90;;;3.30;99.90;;;;;;5053052;28;20500;-83
2021/01/28 02:06:33;;;;;;;1.77;1.67;;;3.30;99.90;;;;;;5053473;28;20468;-83
2021/01/28 02:09:01;;;;;;;1.33;1.23;;;3.40;99.90;;;;;;5053056;28;20430;-83
2021/01/28 02:11:27;;;;;;;1.87;1.77;;;3.50;99.90;;;;;;5053173;28;20631;-84
2021/01/28 02:13:55;;;;;;;1.77;1.67;;;2.90;99.90;;;;;;5053042;28;20446;-83
2021/01/28 02:16:24;;;;;;;1.77;1.43;;;3.30;99.90;;;;;;5053118;28;20465;-82
2021/01/28 02:18:50;;;;;;;4.10;1.60;;;3.00;99.90;;;;;;5053022;28;20438;-82
2021/01/28 02:21:29;;;;;;;2.40;1.37;;;3.40;99.90;;;;;;5052570;28;20446;-83
2021/01/28 02:24:32;;;;;;;1.30;1.20;;;3.00;99.90;;;;;;5052765;28;20461;-82
2021/01/28 02:26:58;;;;;;;1.30;1.10;;;3.30;99.90;;;;;;5045106;28;20452;-82
2021/01/28 02:29:24;;;;;;;1.27;1.00;;;3.20;99.90;;;;;;5054064;28;20949;-82
2021/01/28 02:31:53;;;;;;;1.33;1.33;;;3.00;99.90;;;;;;5052421;28;20482;-82
2021/01/28 02:34:20;;;;;;;1.03;0.93;;;2.90;99.90;;;;;;5052642;28;20419;-82
2021/01/28 02:36:49;;;;;;;1.00;0.90;;;3.30;99.90;;;;;;5052936;28;21059;-82
2021/01/28 02:39:19;;;;;;;0.90;0.90;;;3.50;99.90;;;;;;5052667;28;20423;-83
2021/01/28 02:41:52;;;;;;;0.80;0.70;;;3.20;99.90;;;;;;5052655;28;20465;-82
2021/01/28 02:44:18;;;;;;;1.00;0.90;;;3.40;99.90;;;;;;5052959;28;20525;-82
2021/01/28 02:46:43;;;;;;;5.73;1.20;;;3.20;99.90;;;;;;5055060;28;20942;-83
2021/01/28 02:49:09;;;;;;;0.90;0.90;;;3.20;99.90;;;;;;5053927;28;20164;-82
2021/01/28 02:51:34;;;;;;;1.07;0.97;;;3.10;99.90;;;;;;5052549;28;20180;-83
2021/01/28 02:54:00;;;;;;;0.90;0.90;;;3.40;99.90;;;;;;5052383;28;20873;-82
2021/01/28 02:56:27;;;;;;;0.97;0.97;;;3.50;99.90;;;;;;5052193;28;20226;-82
2021/01/28 02:58:53;;;;;;;1.27;1.17;;;3.50;99.90;;;;;;5052455;28;20197;-82
2021/01/28 03:01:19;;;;;;;0.93;0.80;;;3.40;99.90;;;;;;5051919;28;20892;-83
2021/01/28 03:03:45;;;;;;;1.33;1.03;;;3.20;99.90;;;;;;5052118;28;20418;-83
2021/01/28 03:06:12;;;;;;;1.07;1.00;;;3.40;99.90;;;;;;5051993;28;20418;-83
2021/01/28 03:08:38;;;;;;;0.90;0.87;;;3.50;99.90;;;;;;5052060;28;20183;-83
2021/01/28 03:11:05;;;;;;;1.37;1.27;;;3.20;99.90;;;;;;5052027;28;20510;-83
2021/01/28 03:13:30;;;;;;;1.20;1.20;;;3.10;99.90;;;;;;5053027;28;20458;-83
2021/01/28 03:15:59;;;;;;;0.80;0.80;;;3.10;99.90;;;;;;5051779;28;21100;-83
2021/01/28 03:18:25;;;;;;;0.80;0.80;;;3.30;99.90;;;;;;5051866;28;20192;-82
2021/01/28 03:20:52;;;;;;;1.40;1.03;;;3.60;99.90;;;;;;5051857;28;20427;-83
2021/01/28 03:23:19;;;;;;;1.13;0.90;;;3.60;99.90;;;;;;5051879;28;20926;-83
2021/01/28 03:25:45;;;;;;;1.20;0.80;;;3.60;99.90;;;;;;5051811;28;20836;-82
2021/01/28 03:28:11;;;;;;;1.30;1.07;;;3.60;99.90;;;;;;5052833;28;20430;-83
2021/01/28 03:30:42;;;;;;;1.23;1.13;;;3.20;99.90;;;;;;5051423;28;20430;-84
2021/01/28 03:33:11;;;;;;;0.90;0.90;;;3.60;99.90;;;;;;5051449;28;20184;-83
2021/01/28 03:35:38;;;;;;;0.63;0.60;;;3.70;99.90;;;;;;5051401;28;20828;-84
2021/01/28 03:38:04;;;;;;;0.90;0.90;;;3.30;99.90;;;;;;5051380;28;20481;-83
2021/01/28 03:40:31;;;;;;;0.50;0.50;;;3.30;99.90;;;;;;5052485;28;20777;-83
2021/01/28 03:42:56;;;;;;;0.90;0.90;;;3.70;99.90;;;;;;5052504;28;20480;-84
2021/01/28 03:45:23;;;;;;;0.90;0.90;;;3.30;99.90;;;;;;5051017;28;20453;-83
2021/01/28 03:47:49;;;;;;;0.70;0.70;;;3.30;99.90;;;;;;5051335;28;20206;-84
2021/01/28 03:50:19;;;;;;;0.77;0.77;;;3.10;99.90;;;;;;5051459;28;20937;-83
2021/01/28 03:52:44;;;;;;;0.73;0.73;;;3.60;99.90;;;;;;5051012;28;20183;-83
2021/01/28 03:55:10;;;;;;;2.60;1.07;;;3.60;99.90;;;;;;5051294;28;20771;-83
2021/01/28 03:57:36;;;;;;;1.43;1.33;;;3.60;99.90;;;;;;5051020;28;20519;-82
2021/01/28 04:00:09;;;;;;;1.23;1.13;;;3.40;99.90;;;;;;5051271;28;20837;-83
2021/01/28 04:02:35;;;;;;;0.90;0.90;;;3.60;99.90;;;;;;5051401;28;20431;-83
2021/01/28 04:05:02;;;;;;;1.53;1.43;;;3.30;99.90;;;;;;5051142;28;20422;-83
2021/01/28 04:07:28;;;;;;;1.87;1.73;;;3.70;99.90;;;;;;5050855;28;20195;-83
2021/01/28 04:09:53;;;;;;;2.70;1.97;;;3.30;99.90;;;;;;5050746;28;20497;-83
2021/01/28 04:12:19;;;;;;;2.97;2.40;;;3.10;99.90;;;;;;5051205;28;20458;-83
2021/01/28 04:14:45;;;;;;;2.50;2.30;;;3.50;99.90;;;;;;5051234;28;20195;-83
2021/01/28 04:17:11;;;;;;;3.13;2.10;;;3.20;99.90;;;;;;5051465;28;20239;-83
2021/01/28 04:19:37;;;;;;;3.00;2.30;;;3.60;99.90;;;;;;5050686;28;20187;-82
2021/01/28 04:22:03;;;;;;;3.40;2.40;;;3.60;99.90;;;;;;5051034;28;20434;-84
2021/01/28 04:24:28;;;;;;;2.93;2.40;;;3.40;99.90;;;;;;5050859;28;20179;-84
2021/01/28 04:26:54;;;;;;;3.43;3.00;;;3.40;99.90;;;;;;5050838;28;20183;-82
2021/01/28 04:29:20;;;;;;;3.20;2.90;;;3.20;99.90;;;;;;5052329;28;20183;-82
2021/01/28 04:31:46;;;;;;;3.40;2.70;;;3.50;99.90;;;;;;5050208;28;20632;-85
2021/01/28 04:34:12;;;;;;;3.00;2.80;;;3.10;99.90;;;;;;5052448;28;20437;-83
2021/01/28 04:36:38;;;;;;;3.70;2.57;;;3.60;99.90;;;;;;5051274;28;20257;-83
2021/01/28 04:39:04;;;;;;;3.50;3.20;;;3.80;99.90;;;;;;5051775;28;20233;-84
2021/01/28 04:41:31;;;;;;;3.03;2.37;;;3.60;99.90;;;;;;5051122;28;20241;-82
2021/01/28 04:43:59;;;;;;;3.30;3.00;;;3.30;99.90;;;;;;5053794;28;20418;-85
2021/01/28 04:46:41;;;;;;;2.70;2.50;;;3.60;99.90;;;;;;5051206;28;20462;-79
2021/01/28 04:49:12;;;;;;;3.80;2.37;;;3.40;99.90;;;;;;5050847;28;20440;-83
2021/01/28 04:51:39;;;;;;;2.80;2.60;;;3.70;99.90;;;;;;5050653;28;20461;-83
2021/01/28 04:54:09;;;;;;;4.20;3.80;;;3.50;99.90;;;;;;5051846;28;20419;-82
2021/01/28 04:56:35;;;;;;;3.70;3.00;;;3.80;99.90;;;;;;5050543;28;20511;-83
2021/01/28 04:59:09;;;;;;;3.00;2.70;;;3.30;99.90;;;;;;5050612;28;20435;-83
2021/01/28 05:01:36;;;;;;;3.97;3.67;;;3.90;99.90;;;;;;5050686;28;20195;-83
2021/01/28 05:04:07;;;;;;;4.20;3.07;;;3.80;99.90;;;;;;5050402;28;20537;-82
2021/01/28 05:06:33;;;;;;;3.37;3.07;;;3.40;99.90;;;;;;5050666;28;20932;-83
2021/01/28 05:08:59;;;;;;;4.60;3.60;;;3.80;99.90;;;;;;5052266;28;20406;-82
2021/01/28 05:11:31;;;;;;;3.17;2.97;;;3.90;99.90;;;;;;5050800;28;20421;-85
2021/01/28 05:14:16;;;;;;;4.40;3.73;;;3.50;99.90;;;;;;5051418;28;20194;-84
2021/01/28 05:16:49;;;;;;;3.50;3.00;;;3.50;99.90;;;;;;5051965;28;20450;-84
2021/01/28 05:19:36;;;;;;;6.00;4.10;;;3.80;99.90;;;;;;5049749;28;20500;-84
2021/01/28 05:22:10;;;;;;;5.30;4.43;;;3.90;99.90;;;;;;5053521;28;20499;-83
2021/01/28 05:24:48;;;;;;;5.53;3.80;;;3.50;99.90;;;;;;5054283;28;20447;-83
2021/01/28 05:27:33;;;;;;;8.30;4.80;;;3.80;99.90;;;;;;5054271;28;20414;-83
2021/01/28 05:30:03;;;;;;;7.33;5.20;;;3.90;99.90;;;;;;5053857;28;20449;-83
2021/01/28 05:32:40;;;;;;;6.20;5.37;;;3.30;99.90;;;;;;5053952;28;20529;-84
2021/01/28 05:35:29;;;;;;;5.70;5.17;;;3.80;99.90;;;;;;5055325;28;20418;-84
2021/01/28 05:38:18;;;;;;;6.00;5.40;;;3.80;99.90;;;;;;5053762;28;20564;-83
2021/01/28 05:40:53;;;;;;;5.90;5.10;;;3.80;99.90;;;;;;5054526;28;20423;-83
2021/01/28 05:43:33;;;;;;;9.80;5.47;;;3.50;99.90;;;;;;5054131;28;20416;-83
2021/01/28 05:46:21;;;;;;;6.20;3.97;;;3.70;99.90;;;;;;5053542;28;20433;-83
2021/01/28 05:49:02;;;;;;;9.07;6.10;;;3.80;99.90;;;;;;5053689;28;20426;-84
2021/01/28 05:51:39;;;;;;;6.53;4.80;;;3.70;99.90;;;;;;5053463;28;20444;-83
2021/01/28 05:54:18;;;;;;;10.07;5.90;;;3.80;99.90;;;;;;5055793;28;20552;-83
2021/01/28 05:57:05;;;;;;;5.17;4.67;;;3.50;99.90;;;;;;5053534;28;21015;-81
2021/01/28 05:59:51;;;;;;;6.03;4.77;;;3.60;99.90;;;;;;5054771;28;20412;-79
2021/01/28 06:02:27;;;;;;;9.73;6.60;;;3.80;99.90;;;;;;5053577;28;20453;-85
2021/01/28 06:05:13;;;;;;;8.30;5.90;;;3.70;99.90;;;;;;5052961;28;20422;-82
2021/01/28 06:07:45;;;;;;;9.60;6.33;;;3.90;99.90;;;;;;5054734;28;20413;-84
2021/01/28 06:10:38;;;;;;;8.30;6.93;;;3.70;99.90;;;;;;5053201;28;20430;-83
2021/01/28 06:13:57;;;;;;;9.03;6.60;;;3.80;99.90;;;;;;5056267;28;20906;-83
2021/01/28 06:16:37;;;;;;;9.37;6.83;;;3.70;99.90;;;;;;5044026;28;20469;-83
2021/01/28 06:19:27;;;;;;;8.20;6.90;;;3.60;99.90;;;;;;5053393;28;20430;-83
2021/01/28 06:22:00;;;;;;;7.17;5.33;;;3.60;99.90;;;;;;5052493;28;20461;-83
2021/01/28 06:25:05;;;;;;;6.50;5.80;;;3.90;99.90;;;;;;5053096;28;20938;-84
2021/01/28 06:27:49;;;;;;;5.93;4.57;;;3.80;99.90;;;;;;5053311;28;20418;-82
2021/01/28 06:30:35;;;;;;;6.10;4.90;;;3.90;99.90;;;;;;5054035;28;20427;-80
2021/01/28 06:33:25;;;;;;;7.93;6.17;;;3.80;99.90;;;;;;5053597;28;20425;-84
2021/01/28 06:36:18;;;;;;;6.80;4.57;;;4.00;99.90;;;;;;5052778;28;20422;-82
2021/01/28 06:38:56;;;;;;;6.57;4.87;;;3.80;99.90;;;;;;5050015;28;20443;-82
2021/01/28 06:41:26;;;;;;;9.03;6.40;;;3.80;99.90;;;;;;5051810;28;20433;-84
2021/01/28 06:44:22;;;;;;;7.37;5.37;;;3.60;99.90;;;;;;5053094;28;20406;-85
2021/01/28 06:46:58;;;;;;;8.27;5.90;;;3.90;99.90;;;;;;5049632;28;20487;-84
2021/01/28 06:49:40;;;;;;;8.67;6.30;;;3.50;99.90;;;;;;5051846;28;20456;-84
2021/01/28 06:52:33;;;;;;;7.30;5.93;;;3.80;99.90;;;;;;5052554;28;20786;-84
2021/01/28 06:55:11;;;;;;;8.93;6.17;;;3.80;99.90;;;;;;5053662;28;20418;-81
2021/01/28 06:58:02;;;;;;;9.80;6.10;;;3.70;99.90;;;;;;5052563;28;20474;-83
2021/01/28 07:00:47;;;;;;;12.63;9.30;;;3.70;99.90;;;;;;5052774;28;20464;-84
2021/01/28 07:04:15;;;;;;;8.10;6.53;;;3.80;99.90;;;;;;5051355;28;20975;-83
2021/01/28 07:06:56;;;;;;;10.50;6.80;;;3.50;99.90;;;;;;4991093;28;20424;-81
2021/01/28 07:09:28;;;;;;;11.20;7.17;;;3.40;99.90;;;;;;5003379;28;20474;-80
2021/01/28 07:12:02;;;;;;;7.70;6.53;;;3.20;99.90;;;;;;5028349;28;20506;-84
2021/01/28 07:14:28;;;;;;;11.07;8.10;;;3.30;99.90;;;;;;5051040;28;20961;-84
2021/01/28 07:17:13;;;;;;;10.50;6.90;;;3.60;99.90;;;;;;5050162;28;20505;-82
2021/01/28 07:19:42;;;;;;;12.07;6.80;;;3.70;99.90;;;;;;5048609;28;20920;-82
2021/01/28 07:22:40;;;;;;;12.47;7.97;;;3.30;99.90;;;;;;5046366;28;20431;-83
2021/01/28 07:25:28;;;;;;;11.00;7.23;;;3.60;99.90;;;;;;5048328;28;21030;-86
2021/01/28 07:28:00;;;;;;;8.73;7.30;;;3.60;99.90;;;;;;5047226;28;20430;-83
2021/01/28 07:30:42;;;;;;;13.00;9.20;;;3.80;99.90;;;;;;5049916;28;20779;-83
2021/01/28 07:33:22;;;;;;;8.87;7.13;;;3.90;99.90;;;;;;5051985;28;20965;-83
2021/01/28 07:35:50;;;;;;;10.00;7.90;;;3.70;99.90;;;;;;5050147;28;20890;-84
2021/01/28 07:38:28;;;;;;;9.90;7.80;;;3.30;99.90;;;;;;5050295;28;20481;-84
2021/01/28 07:41:09;;;;;;;9.93;7.00;;;3.40;99.90;;;;;;5050360;28;20865;-85
2021/01/28 07:43:38;;;;;;;9.57;6.90;;;3.70;99.90;;;;;;5050052;28;20434;-83
2021/01/28 07:46:19;;;;;;;9.63;6.60;;;3.30;99.90;;;;;;5050367;28;20433;-84
2021/01/28 07:49:03;;;;;;;9.93;7.87;;;3.60;99.90;;;;;;5040147;28;20438;-80
2021/01/28 07:51:35;;;;;;;11.10;7.50;;;3.30;99.90;;;;;;5031697;28;20431;-83
2021/01/28 07:54:02;;;;;;;11.10;7.47;;;3.60;99.90;;;;;;5031489;28;20506;-81
2021/01/28 07:56:40;;;;;;;7.43;5.93;;;3.30;99.90;;;;;;5031659;28;20415;-82
2021/01/28 07:59:32;;;;;;;11.07;7.53;;;3.20;99.90;;;;;;5031594;28;20431;-83
2021/01/28 08:02:14;;;;;;;9.60;6.50;;;3.80;99.90;;;;;;5027081;28;20922;-81
2021/01/28 08:04:48;;;;;;;7.10;6.37;;;3.90;99.90;;;;;;5029924;28;20466;-85
2021/01/28 08:07:20;;;;;;;11.03;7.63;;;3.40;99.90;;;;;;5045291;28;20743;-82
2021/01/28 08:09:55;;;;;;;10.03;7.80;;;3.70;99.90;;;;;;5051564;28;20486;-90
2021/01/28 08:12:23;;;;;;;9.63;6.13;;;3.80;99.90;;;;;;5050450;28;20773;-80
2021/01/28 08:14:52;;;;;;;8.37;6.27;;;3.60;99.90;;;;;;5051150;28;20804;-85
2021/01/28 08:17:22;;;;;;;8.70;7.03;;;3.90;99.90;;;;;;5050530;28;20532;-84
2021/01/28 08:19:48;;;;;;;8.70;6.50;;;3.50;99.90;;;;;;5051581;28;20869;-85
2021/01/28 08:22:19;;;;;;;9.73;7.47;;;4.00;99.90;;;;;;5049928;28;20461;-82
2021/01/28 08:24:57;;;;;;;10.23;7.77;;;3.90;99.90;;;;;;5050916;28;20857;-83
2021/01/28 08:27:34;;;;;;;11.83;10.37;;;3.90;99.90;;;;;;5049734;28;20426;-82
2021/01/28 08:30:07;;;;;;;10.00;7.90;;;3.90;99.90;;;;;;5049407;28;20418;-84
2021/01/28 08:32:34;;;;;;;14.03;12.13;;;4.00;99.90;;;;;;5048985;28;20535;-80
2021/01/28 08:35:06;;;;;;;11.20;6.90;;;3.50;99.90;;;;;;5049591;28;20431;-82
2021/01/28 08:37:36;;;;;;;8.27;5.30;;;4.00;99.90;;;;;;5049266;28;20489;-82
2021/01/28 08:40:06;;;;;;;9.63;7.70;;;3.60;99.90;;;;;;5033344;28;21346;-81
2021/01/28 08:42:32;;;;;;;9.47;6.60;;;4.20;99.90;;;;;;5046926;28;20958;-84
2021/01/28 08:45:19;;;;;;;7.77;7.03;;;3.70;99.90;;;;;;5049351;28;20458;-82
2021/01/28 08:48:02;;;;;;;9.23;5.60;;;4.10;99.90;;;;;;5049854;28;20979;-84
2021/01/28 08:50:29;;;;;;;5.47;4.73;;;4.10;99.90;;;;;;5050780;28;20482;-82
2021/01/28 08:53:22;;;;;;;8.50;5.97;;;3.90;99.90;;;;;;5050496;28;21017;-84
2021/01/28 08:55:49;;;;;;;9.17;6.40;;;4.00;99.90;;;;;;5050948;28;20422;-83
2021/01/28 08:58:29;;;;;;;7.93;5.87;;;3.90;99.90;;;;;;5055843;28;20461;-83
2021/01/28 09:01:01;;;;;;;7.50;5.70;;;4.00;99.90;;;;;;5055183;28;20427;-82
2021/01/28 09:03:32;;;;;;;11.93;5.73;;;4.40;99.90;;;;;;5054646;28;20433;-83
2021/01/28 09:06:02;;;;;;;5.97;4.63;;;4.20;99.90;;;;;;5055743;28;20429;-84
2021/01/28 09:08:37;;;;;;;3.90;3.20;;;4.10;99.90;;;;;;5054650;28;21417;-83
2021/01/28 09:11:08;;;;;;;6.77;4.90;;;4.40;99.90;;;;;;5054311;28;20426;-83
2021/01/28 09:13:33;;;;;;;6.40;5.57;;;4.10;99.90;;;;;;5054812;28;20418;-83
2021/01/28 09:16:18;;;;;;;10.10;4.53;;;4.00;99.90;;;;;;5054494;28;20425;-83
2021/01/28 09:18:49;;;;;;;5.60;5.00;;;4.30;99.90;;;;;;5053715;28;20544;-83
2021/01/28 09:21:21;;;;;;;9.50;6.37;;;4.20;99.90;;;;;;5053472;28;20458;-83
2021/01/28 09:23:54;;;;;;;5.43;4.90;;;4.70;99.90;;;;;;5054587;28;20462;-84
2021/01/28 09:26:25;;;;;;;5.57;4.53;;;4.60;99.90;;;;;;5053765;28;20547;-84
2021/01/28 09:28:50;;;;;;;20.80;15.97;;;4.60;99.90;;;;;;5068037;28;20430;-79
2021/01/28 09:31:27;;;;;;;23.87;17.40;;;4.30;99.90;;;;;;5053313;28;20458;-85
2021/01/28 09:33:53;;;;;;;23.47;18.83;;;4.20;99.90;;;;;;5053005;28;20311;-85
2021/01/28 09:36:29;;;;;;;17.80;15.67;;;4.70;99.90;;;;;;5053092;28;20451;-83
2021/01/28 09:39:07;;;;;;;9.50;8.60;;;4.80;99.90;;;;;;5053357;28;20445;-82
2021/01/28 09:41:39;;;;;;;7.80;7.00;;;4.70;99.90;;;;;;5053634;28;20820;-83
2021/01/28 09:44:33;;;;;;;6.47;4.20;;;4.40;99.90;;;;;;5053022;28;20521;-81
2021/01/28 09:47:23;;;;;;;13.73;11.93;;;4.80;99.90;;;;;;5053019;28;20465;-88
2021/01/28 09:49:54;;;;;;;9.63;7.50;;;4.80;99.90;;;;;;5052253;28;20488;-81
2021/01/28 09:52:25;;;;;;;8.43;7.60;;;4.70;99.90;;;;;;5052387;28;20824;-83
2021/01/28 09:54:53;;;;;;;4.53;3.87;;;4.40;99.90;;;;;;5050164;28;20477;-84
2021/01/28 09:57:19;;;;;;;6.70;5.00;;;4.60;99.90;;;;;;5051359;28;20457;-83
2021/01/28 09:59:45;;;;;;;10.20;8.13;;;5.00;99.90;;;;;;5052518;28;20430;-84
2021/01/28 10:02:17;;;;;;;6.53;5.53;;;5.00;99.90;;;;;;5052692;28;20427;-83
2021/01/28 10:04:44;;;;;;;4.10;3.50;;;5.10;99.90;;;;;;5053921;28;20460;-83
2021/01/28 10:07:10;;;;;;;2.63;2.40;;;5.10;99.90;;;;;;5052596;28;20433;-84
2021/01/28 10:09:36;;;;;;;4.70;3.23;;;5.20;99.90;;;;;;5054223;28;20430;-83
2021/01/28 10:12:02;;;;;;;3.73;3.33;;;5.30;99.90;;;;;;5053689;28;20446;-82
2021/01/28 10:14:27;;;;;;;3.17;2.90;;;5.30;99.90;;;;;;5053795;28;20214;-83
2021/01/28 10:16:53;;;;;;;4.60;2.90;;;5.50;99.90;;;;;;5053578;28;20212;-84
2021/01/28 10:19:18;;;;;;;3.07;2.70;;;5.40;99.90;;;;;;5054344;28;20191;-83
2021/01/28 10:21:44;;;;;;;3.13;2.83;;;5.40;99.90;;;;;;5054720;28;20188;-83
2021/01/28 10:24:10;;;;;;;2.93;2.73;;;5.40;99.90;;;;;;5053187;28;20226;-83
2021/01/28 10:26:35;;;;;;;3.23;2.80;;;5.50;99.90;;;;;;5051910;28;20180;-84
2021/01/28 10:29:01;;;;;;;3.00;2.70;;;5.60;99.90;;;;;;5052381;28;20257;-82
2021/01/28 10:31:26;;;;;;;2.50;1.87;;;5.60;99.90;;;;;;5049481;28;20220;-84
2021/01/28 10:33:52;;;;;;;2.30;2.10;;;5.80;99.90;;;;;;5052350;28;20586;-82
2021/01/28 10:36:17;;;;;;;1.50;1.40;;;5.80;99.90;;;;;;5052087;28;20226;-82
2021/01/28 10:38:43;;;;;;;2.00;1.80;;;5.70;99.90;;;;;;5053737;28;20223;-82
2021/01/28 10:41:09;;;;;;;2.33;1.83;;;5.90;99.90;;;;;;5052912;28;20598;-83
2021/01/28 10:43:35;;;;;;;2.13;2.03;;;5.90;99.90;;;;;;5053742;28;20293;-84
2021/01/28 10:46:01;;;;;;;2.17;2.03;;;5.90;99.90;;;;;;5053725;28;20427;-84
2021/01/28 10:48:26;;;;;;;4.43;1.90;;;5.90;99.90;;;;;;5058556;28;20696;-84
2021/01/28 10:50:52;;;;;;;1.90;1.70;;;6.00;99.90;;;;;;5052697;28;20643;-82
2021/01/28 10:53:17;;;;;;;1.63;1.53;;;6.10;99.90;;;;;;5053942;28;20225;-87
2021/01/28 10:55:43;;;;;;;1.37;1.27;;;6.30;99.90;;;;;;5052397;28;20253;-82
2021/01/28 10:58:09;;;;;;;1.73;1.63;;;6.50;99.90;;;;;;5051736;28;20211;-83
2021/01/28 11:00:35;;;;;;;1.37;1.27;;;6.50;99.90;;;;;;5053650;28;20207;-84
2021/01/28 11:03:01;;;;;;;3.80;1.93;;;6.60;99.90;;;;;;5053873;28;20434;-88
2021/01/28 11:05:28;;;;;;;2.67;1.57;;;6.60;99.90;;;;;;5052942;28;20211;-85
2021/01/28 11:07:54;;;;;;;1.17;1.10;;;6.50;99.90;;;;;;5053091;28;20941;-84
2021/01/28 11:10:23;;;;;;;1.77;1.37;;;6.60;99.90;;;;;;5052983;28;20418;-83
2021/01/28 11:12:49;;;;;;;1.50;1.40;;;6.60;99.90;;;;;;5052283;28;20194;-85
2021/01/28 11:15:14;;;;;;;2.93;2.73;;;6.60;99.90;;;;;;5053668;28;20790;-85
2021/01/28 11:17:40;;;;;;;2.73;1.60;;;6.60;99.90;;;;;;5052408;28;20473;-85
2021/01/28 11:20:10;;;;;;;1.73;1.63;;;6.60;99.90;;;;;;5051125;28;20234;-84
2021/01/28 11:22:37;;;;;;;1.50;1.40;;;6.60;99.90;;;;;;5051923;28;20742;-84
2021/01/28 11:25:04;;;;;;;2.50;2.27;;;6.60;99.90;;;;;;5052138;28;20411;-82
2021/01/28 11:27:29;;;;;;;1.03;1.00;;;6.80;99.90;;;;;;5052429;28;20430;-84
2021/01/28 11:29:55;;;;;;;1.50;1.40;;;7.00;99.90;;;;;;5053103;28;20437;-87
2021/01/28 11:32:20;;;;;;;1.20;1.20;;;7.20;99.90;;;;;;5051401;28;20220;-84
2021/01/28 11:34:46;;;;;;;1.20;1.20;;;7.60;99.90;;;;;;5051698;28;20590;-85
2021/01/28 11:37:12;;;;;;;1.83;1.47;;;7.90;99.90;;;;;;5051380;28;20675;-81
2021/01/28 11:39:37;;;;;;;1.97;1.87;;;8.00;99.90;;;;;;5051634;28;20218;-81
2021/01/28 11:42:03;;;;;;;2.17;1.97;;;7.90;99.90;;;;;;5051982;28;20202;-84
2021/01/28 11:44:29;;;;;;;2.43;1.10;;;7.80;99.90;;;;;;5051003;28;20176;-83
2021/01/28 11:46:55;;;;;;;3.20;3.00;;;7.80;99.90;;;;;;5050668;28;20187;-84
2021/01/28 11:49:20;;;;;;;0.80;0.80;;;7.80;99.90;;;;;;5050867;28;20798;-83
2021/01/28 11:51:46;;;;;;;0.83;0.83;;;7.80;99.90;;;;;;5050053;28;20195;-83
2021/01/28 11:54:12;;;;;;;0.97;0.97;;;7.70;99.90;;;;;;5050737;28;20540;-84
2021/01/28 11:56:37;;;;;;;1.00;1.00;;;7.70;99.90;;;;;;5052227;28;20471;-84
2021/01/28 11:59:03;;;;;;;0.60;0.60;;;7.80;99.90;;;;;;5052541;28;20179;-84
2021/01/28 12:01:29;;;;;;;0.80;0.80;;;7.90;99.90;;;;;;5052069;28;20194;-86
2021/01/28 12:03:55;;;;;;;2.03;1.20;;;8.00;99.90;;;;;;5052832;28;20255;-84
2021/01/28 12:06:20;;;;;;;0.63;0.63;;;8.10;99.90;;;;;;5052332;28;20830;-85
2021/01/28 12:08:46;;;;;;;1.20;1.00;;;8.30;99.90;;;;;;5052827;28;20190;-84
2021/01/28 12:11:12;;;;;;;3.10;2.63;;;8.50;99.90;;;;;;5052897;28;20227;-85
2021/01/28 12:13:37;;;;;;;1.20;1.10;;;8.50;99.90;;;;;;5052223;28;20230;-85
2021/01/28 12:16:03;;;;;;;0.80;0.80;;;8.40;99.90;;;;;;5053639;28;20203;-84
2021/01/28 12:18:28;;;;;;;1.70;0.80;;;8.40;99.90;;;;;;5053594;28;20225;-85
2021/01/28 12:20:54;;;;;;;0.50;0.50;;;8.50;99.90;;;;;;5052459;28;20255;-81
2021/01/28 12:23:20;;;;;;;0.43;0.40;;;8.60;99.90;;;;;;5051009;28;20235;-83
2021/01/28 12:25:45;;;;;;;0.80;0.80;;;8.80;99.90;;;;;;5051253;28;20183;-84
2021/01/28 12:28:12;;;;;;;0.60;0.50;;;8.70;99.90;;;;;;5051727;28;20180;-83
2021/01/28 12:30:38;;;;;;;1.27;1.17;;;8.90;99.90;;;;;;5050480;28;20179;-85
2021/01/28 12:33:03;;;;;;;1.00;0.40;;;9.00;99.90;;;;;;5050989;28;20437;-84
2021/01/28 12:35:29;;;;;;;0.40;0.40;;;9.00;99.90;;;;;;5046110;28;20192;-83
2021/01/28 12:37:56;;;;;;;0.50;0.50;;;9.00;99.90;;;;;;5049974;28;20215;-84
2021/01/28 12:40:24;;;;;;;1.23;0.80;;;8.90;99.90;;;;;;5051039;28;20179;-85
2021/01/28 12:42:50;;;;;;;0.40;0.40;;;8.90;99.90;;;;;;5050880;28;20937;-84
2021/01/28 12:45:16;;;;;;;0.90;0.70;;;9.00;99.90;;;;;;5047915;28;20426;-84
2021/01/28 12:47:42;;;;;;;0.30;0.30;;;8.90;99.90;;;;;;5049127;28;20648;-84
2021/01/28 12:50:08;;;;;;;2.60;1.57;;;9.00;99.90;;;;;;5047494;28;20457;-85
2021/01/28 12:52:35;;;;;;;0.50;0.50;;;9.20;99.90;;;;;;5049999;28;20187;-84
2021/01/28 12:55:00;;;;;;;1.67;0.40;;;9.20;99.90;;;;;;5050202;28;20418;-84
2021/01/28 12:57:26;;;;;;;0.53;0.40;;;9.30;99.90;;;;;;5050671;28;20515;-81
2021/01/28 12:59:52;;;;;;;0.40;0.30;;;9.40;99.90;;;;;;5049797;28;20245;-84
2021/01/28 13:02:17;;;;;;;0.43;0.43;;;9.60;99.90;;;;;;5049917;28;20175;-85
2021/01/28 13:04:43;;;;;;;0.50;0.43;;;9.60;99.90;;;;;;5050300;28;20176;-84
2021/01/28 13:07:08;;;;;;;0.80;0.50;;;9.70;99.90;;;;;;5051757;28;20168;-84
2021/01/28 13:09:34;;;;;;;0.43;0.43;;;9.70;99.90;;;;;;5050839;28;20180;-84
2021/01/28 13:11:59;;;;;;;0.67;0.40;;;9.80;99.90;;;;;;5050550;28;20218;-85
2021/01/28 13:14:25;;;;;;;0.50;0.37;;;10.00;99.90;;;;;;5050785;28;20209;-84